sensor_id;sensor_type;location;lat;lon;timestamp;pressure;altitude;pressure_sealevel;temperature;humidity
46534;BME280;32260;52.008;4.752;2023-04-06T00:02:16;101893.09;;;7.61;52.68
46534;BME280;32260;52.008;4.752;2023-04-06T00:04:43;101889.66;;;7.65;52.08
46534;BME280;32260;52.008;4.752;2023-04-06T00:07:10;101887.88;;;7.69;52.19
46534;BME280;32260;52.008;4.752;2023-04-06T00:09:36;101883.56;;;7.74;52.32
46534;BME280;32260;52.008;4.752;2023-04-06T00:12:02;101887.06;;;7.76;52.59
46534;BME280;32260;52.008;4.752;2023-04-06T00:14:28;101891.50;;;7.78;52.32
46534;BME280;32260;52.008;4.752;2023-04-06T00:16:54;101884.50;;;7.81;52.07
46534;BME280;32260;52.008;4.752;2023-04-06T00:19:20;101880.97;;;7.82;50.98
46534;BME280;32260;52.008;4.752;2023-04-06T00:21:46;101878.34;;;7.83;51.42
46534;BME280;32260;52.008;4.752;2023-04-06T00:24:12;101871.28;;;7.81;51.06
46534;BME280;32260;52.008;4.752;2023-04-06T00:26:38;101876.56;;;7.82;51.02
46534;BME280;32260;52.008;4.752;2023-04-06T00:29:05;101866.06;;;7.87;51.63
46534;BME280;32260;52.008;4.752;2023-04-06T00:31:31;101864.34;;;7.89;51.29
46534;BME280;32260;52.008;4.752;2023-04-06T00:33:57;101862.63;;;7.94;51.03
46534;BME280;32260;52.008;4.752;2023-04-06T00:36:23;101859.97;;;7.97;50.55
46534;BME280;32260;52.008;4.752;2023-04-06T00:38:49;101862.63;;;7.97;50.63
46534;BME280;32260;52.008;4.752;2023-04-06T00:41:15;101848.56;;;7.98;51.00
46534;BME280;32260;52.008;4.752;2023-04-06T00:43:41;101851.19;;;7.98;50.59
46534;BME280;32260;52.008;4.752;2023-04-06T00:46:08;101843.28;;;7.98;50.13
46534;BME280;32260;52.008;4.752;2023-04-06T00:48:34;101846.81;;;8.00;50.24
46534;BME280;32260;52.008;4.752;2023-04-06T00:51:01;101838.88;;;7.96;50.55
46534;BME280;32260;52.008;4.752;2023-04-06T00:53:27;101836.22;;;7.92;50.32
46534;BME280;32260;52.008;4.752;2023-04-06T00:55:53;101835.31;;;7.89;50.56
46534;BME280;32260;52.008;4.752;2023-04-06T00:58:19;101830.91;;;7.86;50.48
46534;BME280;32260;52.008;4.752;2023-04-06T01:00:45;101828.22;;;7.85;50.01
46534;BME280;32260;52.008;4.752;2023-04-06T01:03:11;101824.75;;;7.89;50.35
46534;BME280;32260;52.008;4.752;2023-04-06T01:05:37;101827.34;;;7.86;50.14
46534;BME280;32260;52.008;4.752;2023-04-06T01:08:06;101817.66;;;7.85;49.99
46534;BME280;32260;52.008;4.752;2023-04-06T01:10:33;101818.56;;;7.88;50.91
46534;BME280;32260;52.008;4.752;2023-04-06T01:12:59;101812.44;;;7.88;50.88
46534;BME280;32260;52.008;4.752;2023-04-06T01:15:26;101811.53;;;7.86;50.84
46534;BME280;32260;52.008;4.752;2023-04-06T01:17:53;101811.47;;;7.81;50.98
46534;BME280;32260;52.008;4.752;2023-04-06T01:20:19;101808.84;;;7.80;51.04
46534;BME280;32260;52.008;4.752;2023-04-06T01:22:45;101807.06;;;7.78;50.93
46534;BME280;32260;52.008;4.752;2023-04-06T01:25:11;101800.91;;;7.76;50.79
46534;BME280;32260;52.008;4.752;2023-04-06T01:27:37;101801.75;;;7.72;51.05
46534;BME280;32260;52.008;4.752;2023-04-06T01:30:04;101801.75;;;7.72;50.86
46534;BME280;32260;52.008;4.752;2023-04-06T01:32:31;101798.19;;;7.69;51.02
46534;BME280;32260;52.008;4.752;2023-04-06T01:34:57;101792.91;;;7.67;50.89
46534;BME280;32260;52.008;4.752;2023-04-06T01:37:23;101787.63;;;7.64;51.06
46534;BME280;32260;52.008;4.752;2023-04-06T01:39:49;101794.66;;;7.62;51.53
46534;BME280;32260;52.008;4.752;2023-04-06T01:42:15;101781.47;;;7.62;51.40
46534;BME280;32260;52.008;4.752;2023-04-06T01:44:42;101773.53;;;7.59;51.26
46534;BME280;32260;52.008;4.752;2023-04-06T01:47:08;101775.22;;;7.54;51.51
46534;BME280;32260;52.008;4.752;2023-04-06T01:49:34;101774.38;;;7.52;51.41
46534;BME280;32260;52.008;4.752;2023-04-06T01:52:00;101772.53;;;7.48;51.54
46534;BME280;32260;52.008;4.752;2023-04-06T01:54:26;101764.63;;;7.48;51.40
46534;BME280;32260;52.008;4.752;2023-04-06T01:56:52;101771.69;;;7.45;51.32
46534;BME280;32260;52.008;4.752;2023-04-06T01:59:18;101768.09;;;7.39;51.93
46534;BME280;32260;52.008;4.752;2023-04-06T02:01:44;101767.22;;;7.37;51.72
46534;BME280;32260;52.008;4.752;2023-04-06T02:04:11;101763.66;;;7.35;51.24
46534;BME280;32260;52.008;4.752;2023-04-06T02:06:37;101759.31;;;7.38;51.46
46534;BME280;32260;52.008;4.752;2023-04-06T02:09:03;101757.53;;;7.37;51.78
46534;BME280;32260;52.008;4.752;2023-04-06T02:11:29;101764.63;;;7.48;51.80
46534;BME280;32260;52.008;4.752;2023-04-06T02:13:56;101751.50;;;7.51;51.02
46534;BME280;32260;52.008;4.752;2023-04-06T02:16:22;101747.06;;;7.47;51.38
46534;BME280;32260;52.008;4.752;2023-04-06T02:18:50;101749.72;;;7.47;51.53
46534;BME280;32260;52.008;4.752;2023-04-06T02:21:16;101747.13;;;7.53;51.34
46534;BME280;32260;52.008;4.752;2023-04-06T02:23:46;101739.22;;;7.56;51.50
46534;BME280;32260;52.008;4.752;2023-04-06T02:26:13;101739.22;;;7.57;51.06
46534;BME280;32260;52.008;4.752;2023-04-06T02:28:39;101742.75;;;7.59;51.27
46534;BME280;32260;52.008;4.752;2023-04-06T02:31:05;101737.50;;;7.63;51.43
46534;BME280;32260;52.008;4.752;2023-04-06T02:33:31;101730.47;;;7.63;51.65
46534;BME280;32260;52.008;4.752;2023-04-06T02:35:57;101727.84;;;7.63;51.16
46534;BME280;32260;52.008;4.752;2023-04-06T02:38:23;101725.22;;;7.65;50.93
46534;BME280;32260;52.008;4.752;2023-04-06T02:40:49;101726.97;;;7.66;51.56
46534;BME280;32260;52.008;4.752;2023-04-06T02:43:15;101733.13;;;7.65;51.54
46534;BME280;32260;52.008;4.752;2023-04-06T02:45:42;101720.84;;;7.65;51.49
46534;BME280;32260;52.008;4.752;2023-04-06T02:48:08;101718.19;;;7.68;51.56
46534;BME280;32260;52.008;4.752;2023-04-06T02:50:35;101717.34;;;7.69;51.91
46534;BME280;32260;52.008;4.752;2023-04-06T02:53:01;101712.94;;;7.70;52.24
46534;BME280;32260;52.008;4.752;2023-04-06T02:55:27;101709.41;;;7.72;51.49
46534;BME280;32260;52.008;4.752;2023-04-06T02:57:53;101713.81;;;7.70;51.60
46534;BME280;32260;52.008;4.752;2023-04-06T03:00:19;101704.16;;;7.71;52.13
46534;BME280;32260;52.008;4.752;2023-04-06T03:02:45;101707.69;;;7.73;51.85
46534;BME280;32260;52.008;4.752;2023-04-06T03:05:11;101700.66;;;7.76;51.66
46534;BME280;32260;52.008;4.752;2023-04-06T03:07:37;101697.13;;;7.77;51.63
46534;BME280;32260;52.008;4.752;2023-04-06T03:10:03;101690.13;;;7.80;51.80
46534;BME280;32260;52.008;4.752;2023-04-06T03:12:29;101697.16;;;7.79;51.77
46534;BME280;32260;52.008;4.752;2023-04-06T03:14:55;101695.41;;;7.80;51.96
46534;BME280;32260;52.008;4.752;2023-04-06T03:17:21;101687.47;;;7.80;52.26
46534;BME280;32260;52.008;4.752;2023-04-06T03:19:47;101695.41;;;7.80;51.97
46534;BME280;32260;52.008;4.752;2023-04-06T03:22:14;101691.00;;;7.78;52.25
46534;BME280;32260;52.008;4.752;2023-04-06T03:24:39;101689.22;;;7.76;52.05
46534;BME280;32260;52.008;4.752;2023-04-06T03:27:06;101687.47;;;7.76;52.44
46534;BME280;32260;52.008;4.752;2023-04-06T03:29:32;101683.94;;;7.77;52.66
46534;BME280;32260;52.008;4.752;2023-04-06T03:32:00;101687.47;;;7.80;52.08
46534;BME280;32260;52.008;4.752;2023-04-06T03:34:26;101674.28;;;7.80;52.60
46534;BME280;32260;52.008;4.752;2023-04-06T03:36:52;101674.28;;;7.80;52.69
46534;BME280;32260;52.008;4.752;2023-04-06T03:39:18;101679.56;;;7.76;52.95
46534;BME280;32260;52.008;4.752;2023-04-06T03:41:45;101674.28;;;7.78;52.26
46534;BME280;32260;52.008;4.752;2023-04-06T03:44:11;101672.53;;;7.77;52.52
46534;BME280;32260;52.008;4.752;2023-04-06T03:46:37;101683.06;;;7.78;52.84
46534;BME280;32260;52.008;4.752;2023-04-06T03:49:03;101674.28;;;7.78;52.87
46534;BME280;32260;52.008;4.752;2023-04-06T03:51:29;101669.88;;;7.75;52.47
46534;BME280;32260;52.008;4.752;2023-04-06T03:53:55;101671.66;;;7.80;52.89
46534;BME280;32260;52.008;4.752;2023-04-06T03:56:21;101663.75;;;7.81;52.42
46534;BME280;32260;52.008;4.752;2023-04-06T03:58:47;101665.50;;;7.81;53.08
46534;BME280;32260;52.008;4.752;2023-04-06T04:01:16;101666.41;;;7.83;52.48
46534;BME280;32260;52.008;4.752;2023-04-06T04:03:43;101660.22;;;7.82;52.89
46534;BME280;32260;52.008;4.752;2023-04-06T04:06:09;101670.78;;;7.84;52.95
46534;BME280;32260;52.008;4.752;2023-04-06T04:08:35;101667.28;;;7.83;53.17
46534;BME280;32260;52.008;4.752;2023-04-06T04:11:02;101662.84;;;7.77;52.66
46534;BME280;32260;52.008;4.752;2023-04-06T04:13:28;101661.09;;;7.80;52.81
46534;BME280;32260;52.008;4.752;2023-04-06T04:15:54;101663.78;;;7.83;53.16
46534;BME280;32260;52.008;4.752;2023-04-06T04:18:20;101661.09;;;7.78;52.85
46534;BME280;32260;52.008;4.752;2023-04-06T04:20:46;101656.72;;;7.82;53.38
46534;BME280;32260;52.008;4.752;2023-04-06T04:23:12;101661.13;;;7.84;53.36
46534;BME280;32260;52.008;4.752;2023-04-06T04:25:38;101663.75;;;7.81;53.82
46534;BME280;32260;52.008;4.752;2023-04-06T04:28:04;101665.50;;;7.82;53.95
46534;BME280;32260;52.008;4.752;2023-04-06T04:30:30;101661.13;;;7.84;53.88
46534;BME280;32260;52.008;4.752;2023-04-06T04:32:56;101660.25;;;7.85;53.92
46534;BME280;32260;52.008;4.752;2023-04-06T04:35:22;101660.22;;;7.84;53.85
46534;BME280;32260;52.008;4.752;2023-04-06T04:37:48;101658.50;;;7.86;53.84
46534;BME280;32260;52.008;4.752;2023-04-06T04:40:15;101654.13;;;7.88;53.65
46534;BME280;32260;52.008;4.752;2023-04-06T04:42:43;101672.59;;;7.89;54.22
46534;BME280;32260;52.008;4.752;2023-04-06T04:45:09;101658.50;;;7.87;54.57
46534;BME280;32260;52.008;4.752;2023-04-06T04:47:35;101650.59;;;7.92;54.22
46534;BME280;32260;52.008;4.752;2023-04-06T04:50:02;101652.38;;;7.93;54.22
46534;BME280;32260;52.008;4.752;2023-04-06T04:52:28;101654.13;;;7.94;53.60
46534;BME280;32260;52.008;4.752;2023-04-06T04:54:54;101654.13;;;7.94;53.51
46534;BME280;32260;52.008;4.752;2023-04-06T04:57:20;101648.00;;;7.97;53.91
46534;BME280;32260;52.008;4.752;2023-04-06T04:59:46;101647.13;;;7.99;54.24
46534;BME280;32260;52.008;4.752;2023-04-06T05:02:12;101651.53;;;8.00;53.62
46534;BME280;32260;52.008;4.752;2023-04-06T05:04:38;101658.56;;;8.03;53.77
46534;BME280;32260;52.008;4.752;2023-04-06T05:07:05;101651.53;;;8.08;53.32
46534;BME280;32260;52.008;4.752;2023-04-06T05:09:31;101650.66;;;8.10;53.11
46534;BME280;32260;52.008;4.752;2023-04-06T05:11:58;101652.44;;;8.12;53.40
46534;BME280;32260;52.008;4.752;2023-04-06T05:14:24;101648.94;;;8.13;53.03
46534;BME280;32260;52.008;4.752;2023-04-06T05:16:50;101648.91;;;8.16;52.87
46534;BME280;32260;52.008;4.752;2023-04-06T05:19:16;101649.78;;;8.15;53.17
46534;BME280;32260;52.008;4.752;2023-04-06T05:21:42;101648.06;;;8.15;52.89
46534;BME280;32260;52.008;4.752;2023-04-06T05:24:08;101648.94;;;8.19;52.98
46534;BME280;32260;52.008;4.752;2023-04-06T05:26:35;101652.44;;;8.21;53.25
46534;BME280;32260;52.008;4.752;2023-04-06T05:29:01;101641.00;;;8.23;53.53
46534;BME280;32260;52.008;4.752;2023-04-06T05:31:27;101640.16;;;8.29;53.29
46534;BME280;32260;52.008;4.752;2023-04-06T05:33:53;101647.19;;;8.33;52.79
46534;BME280;32260;52.008;4.752;2023-04-06T05:36:19;101648.13;;;8.41;53.07
46534;BME280;32260;52.008;4.752;2023-04-06T05:38:46;101641.94;;;8.46;52.90
46534;BME280;32260;52.008;4.752;2023-04-06T05:41:12;101644.63;;;8.50;52.99
46534;BME280;32260;52.008;4.752;2023-04-06T05:43:38;101642.00;;;8.56;52.50
46534;BME280;32260;52.008;4.752;2023-04-06T05:46:04;101643.75;;;8.62;52.70
46534;BME280;32260;52.008;4.752;2023-04-06T05:48:30;101647.31;;;8.67;52.96
46534;BME280;32260;52.008;4.752;2023-04-06T05:50:56;101649.06;;;8.71;52.83
46534;BME280;32260;52.008;4.752;2023-04-06T05:53:22;101632.31;;;8.77;53.00
46534;BME280;32260;52.008;4.752;2023-04-06T05:55:48;101633.22;;;8.78;53.22
46534;BME280;32260;52.008;4.752;2023-04-06T05:58:14;101648.19;;;8.82;53.31
46534;BME280;32260;52.008;4.752;2023-04-06T06:00:40;101634.09;;;8.81;53.66
46534;BME280;32260;52.008;4.752;2023-04-06T06:03:08;101644.66;;;8.84;53.15
46534;BME280;32260;52.008;4.752;2023-04-06T06:05:34;101633.22;;;8.84;53.50
46534;BME280;32260;52.008;4.752;2023-04-06T06:08:00;101636.72;;;8.83;53.63
46534;BME280;32260;52.008;4.752;2023-04-06T06:10:28;101637.63;;;8.85;53.85
46534;BME280;32260;52.008;4.752;2023-04-06T06:12:54;101636.72;;;8.86;53.99
46534;BME280;32260;52.008;4.752;2023-04-06T06:15:20;101639.38;;;8.89;53.87
46534;BME280;32260;52.008;4.752;2023-04-06T06:17:46;101636.72;;;8.89;53.80
46534;BME280;32260;52.008;4.752;2023-04-06T06:20:12;101634.06;;;8.86;54.01
46534;BME280;32260;52.008;4.752;2023-04-06T06:22:38;101638.50;;;8.90;53.81
46534;BME280;32260;52.008;4.752;2023-04-06T06:25:06;101632.34;;;8.93;53.76
46534;BME280;32260;52.008;4.752;2023-04-06T06:27:32;101632.34;;;8.93;53.97
46534;BME280;32260;52.008;4.752;2023-04-06T06:29:58;101637.63;;;8.99;54.05
46534;BME280;32260;52.008;4.752;2023-04-06T06:32:24;101633.22;;;9.02;53.64
46534;BME280;32260;52.008;4.752;2023-04-06T06:34:50;101633.22;;;9.09;53.98
46534;BME280;32260;52.008;4.752;2023-04-06T06:37:16;101634.06;;;9.15;53.62
46534;BME280;32260;52.008;4.752;2023-04-06T06:39:42;101641.09;;;9.18;53.98
46534;BME280;32260;52.008;4.752;2023-04-06T06:42:08;101641.13;;;9.21;53.39
46534;BME280;32260;52.008;4.752;2023-04-06T06:44:34;101637.59;;;9.25;53.68
46534;BME280;32260;52.008;4.752;2023-04-06T06:47:03;101635.81;;;9.29;53.73
46534;BME280;32260;52.008;4.752;2023-04-06T06:49:32;101633.16;;;9.30;53.21
46534;BME280;32260;52.008;4.752;2023-04-06T06:51:58;101634.91;;;9.34;53.05
46534;BME280;32260;52.008;4.752;2023-04-06T06:54:25;101633.16;;;9.39;53.48
46534;BME280;32260;52.008;4.752;2023-04-06T06:56:51;101626.09;;;9.38;53.31
46534;BME280;32260;52.008;4.752;2023-04-06T06:59:17;101629.59;;;9.47;53.17
46534;BME280;32260;52.008;4.752;2023-04-06T07:01:43;101620.75;;;9.55;53.39
46534;BME280;32260;52.008;4.752;2023-04-06T07:04:09;101624.25;;;9.62;53.27
46534;BME280;32260;52.008;4.752;2023-04-06T07:06:38;101616.28;;;9.70;53.02
46534;BME280;32260;52.008;4.752;2023-04-06T07:09:04;101623.31;;;9.77;53.39
46534;BME280;32260;52.008;4.752;2023-04-06T07:11:30;101618.03;;;9.77;52.69
46534;BME280;32260;52.008;4.752;2023-04-06T07:13:56;101617.09;;;9.89;52.83
46534;BME280;32260;52.008;4.752;2023-04-06T07:16:22;101624.13;;;9.99;52.88
46534;BME280;32260;52.008;4.752;2023-04-06T07:18:48;101625.84;;;10.03;52.58
46534;BME280;32260;52.008;4.752;2023-04-06T07:21:15;101609.91;;;10.16;52.24
46534;BME280;32260;52.008;4.752;2023-04-06T07:23:41;101616.91;;;10.23;52.84
46534;BME280;32260;52.008;4.752;2023-04-06T07:26:07;101619.53;;;10.26;53.71
46534;BME280;32260;52.008;4.752;2023-04-06T07:28:33;101615.94;;;10.35;53.54
46534;BME280;32260;52.008;4.752;2023-04-06T07:30:59;101610.63;;;10.43;53.51
46534;BME280;32260;52.008;4.752;2023-04-06T07:33:26;101608.78;;;10.52;53.73
46534;BME280;32260;52.008;4.752;2023-04-06T07:35:55;101608.75;;;10.57;53.49
46534;BME280;32260;52.008;4.752;2023-04-06T07:38:22;101608.69;;;10.68;53.33
46534;BME280;32260;52.008;4.752;2023-04-06T07:40:48;101600.66;;;10.76;52.87
46534;BME280;32260;52.008;4.752;2023-04-06T07:43:14;101602.38;;;10.80;52.27
46534;BME280;32260;52.008;4.752;2023-04-06T07:45:41;101605.84;;;10.88;51.65
46534;BME280;32260;52.008;4.752;2023-04-06T07:48:07;101605.81;;;10.94;51.88
46534;BME280;32260;52.008;4.752;2023-04-06T07:50:33;101598.63;;;11.03;51.56
46534;BME280;32260;52.008;4.752;2023-04-06T07:52:59;101600.34;;;11.10;50.94
46534;BME280;32260;52.008;4.752;2023-04-06T07:55:26;101600.25;;;11.17;51.68
46534;BME280;32260;52.008;4.752;2023-04-06T07:57:52;101602.00;;;11.22;51.41
46534;BME280;32260;52.008;4.752;2023-04-06T08:00:18;101601.97;;;11.23;51.23
46534;BME280;32260;52.008;4.752;2023-04-06T08:02:44;101604.56;;;11.29;51.23
46534;BME280;32260;52.008;4.752;2023-04-06T08:05:10;101607.09;;;11.39;51.84
46534;BME280;32260;52.008;4.752;2023-04-06T08:07:36;101599.16;;;11.39;51.44
46534;BME280;32260;52.008;4.752;2023-04-06T08:10:03;101608.78;;;11.47;51.75
46534;BME280;32260;52.008;4.752;2023-04-06T08:12:29;101605.19;;;11.50;51.76
46534;BME280;32260;52.008;4.752;2023-04-06T08:14:55;101606.03;;;11.57;52.25
46534;BME280;32260;52.008;4.752;2023-04-06T08:17:22;101602.41;;;11.62;51.49
46534;BME280;32260;52.008;4.752;2023-04-06T08:19:48;101599.72;;;11.65;51.24
46534;BME280;32260;52.008;4.752;2023-04-06T08:22:15;101601.41;;;11.73;52.21
46534;BME280;32260;52.008;4.752;2023-04-06T08:24:41;101599.53;;;11.81;52.01
46534;BME280;32260;52.008;4.752;2023-04-06T08:27:07;101607.50;;;11.82;51.24
46534;BME280;32260;52.008;4.752;2023-04-06T08:29:33;101609.38;;;11.73;51.57
46534;BME280;32260;52.008;4.752;2023-04-06T08:31:59;101617.28;;;11.79;51.68
46534;BME280;32260;52.008;4.752;2023-04-06T08:34:25;101609.31;;;11.77;52.64
46534;BME280;32260;52.008;4.752;2023-04-06T08:36:52;101615.44;;;11.84;52.61
46534;BME280;32260;52.008;4.752;2023-04-06T08:39:18;101611.00;;;11.83;53.10
46534;BME280;32260;52.008;4.752;2023-04-06T08:41:51;101605.63;;;11.89;53.89
46534;BME280;32260;52.008;4.752;2023-04-06T08:44:18;101604.72;;;11.90;53.35
46534;BME280;32260;52.008;4.752;2023-04-06T08:46:45;101611.75;;;11.94;53.78
46534;BME280;32260;52.008;4.752;2023-04-06T08:49:11;101609.97;;;11.93;54.10
46534;BME280;32260;52.008;4.752;2023-04-06T08:51:38;101614.47;;;11.91;54.93
46534;BME280;32260;52.008;4.752;2023-04-06T08:54:05;101606.44;;;11.96;55.25
46534;BME280;32260;52.008;4.752;2023-04-06T08:56:31;101611.75;;;11.97;55.77
46534;BME280;32260;52.008;4.752;2023-04-06T08:58:57;101603.78;;;11.97;55.93
46534;BME280;32260;52.008;4.752;2023-04-06T09:01:26;101611.63;;;12.07;56.97
46534;BME280;32260;52.008;4.752;2023-04-06T09:03:59;101617.06;;;11.97;56.01
46534;BME280;32260;52.008;4.752;2023-04-06T09:06:31;101617.06;;;11.94;56.11
46534;BME280;32260;52.008;4.752;2023-04-06T09:08:57;101607.22;;;12.04;56.14
46534;BME280;32260;52.008;4.752;2023-04-06T09:11:24;101602.84;;;12.02;56.01
46534;BME280;32260;52.008;4.752;2023-04-06T09:13:51;101611.53;;;12.13;56.71
46534;BME280;32260;52.008;4.752;2023-04-06T09:16:18;101602.50;;;12.23;55.59
46534;BME280;32260;52.008;4.752;2023-04-06T09:18:45;101598.72;;;12.40;55.72
46534;BME280;32260;52.008;4.752;2023-04-06T09:21:11;101599.50;;;12.48;54.98
46534;BME280;32260;52.008;4.752;2023-04-06T09:23:38;101595.97;;;12.48;53.85
46534;BME280;32260;52.008;4.752;2023-04-06T09:26:17;101595.88;;;12.54;52.38
46534;BME280;32260;52.008;4.752;2023-04-06T09:28:52;101592.09;;;12.67;53.94
46534;BME280;32260;52.008;4.752;2023-04-06T09:31:29;101593.59;;;12.82;53.23
46534;BME280;32260;52.008;4.752;2023-04-06T09:33:56;101593.75;;;12.74;52.89
46534;BME280;32260;52.008;4.752;2023-04-06T09:36:33;101601.66;;;12.79;53.04
46534;BME280;32260;52.008;4.752;2023-04-06T09:39:04;101593.81;;;12.71;53.81
46534;BME280;32260;52.008;4.752;2023-04-06T09:41:33;101597.69;;;12.50;53.79
46534;BME280;32260;52.008;4.752;2023-04-06T09:44:06;101588.59;;;12.65;54.85
46534;BME280;32260;52.008;4.752;2023-04-06T09:46:35;101589.63;;;12.56;55.42
46534;BME280;32260;52.008;4.752;2023-04-06T09:49:05;101585.13;;;12.60;55.85
46534;BME280;32260;52.008;4.752;2023-04-06T09:51:36;101588.00;;;12.46;55.13
46534;BME280;32260;52.008;4.752;2023-04-06T09:54:03;101586.28;;;12.42;55.68
46534;BME280;32260;52.008;4.752;2023-04-06T09:59:57;101582.78;;;12.40;56.89
46534;BME280;32260;52.008;4.752;2023-04-06T10:08:01;101583.97;;;12.20;57.32
46534;BME280;32260;52.008;4.752;2023-04-06T10:10:29;101585.72;;;12.23;58.78
46534;BME280;32260;52.008;4.752;2023-04-06T10:12:56;101586.75;;;12.12;58.32
46534;BME280;32260;52.008;4.752;2023-04-06T10:15:23;101579.59;;;12.16;58.58
46534;BME280;32260;52.008;4.752;2023-04-06T10:17:50;101580.47;;;12.18;59.04
46534;BME280;32260;52.008;4.752;2023-04-06T10:25:55;101578.63;;;12.22;58.83
46534;BME280;32260;52.008;4.752;2023-04-06T10:28:22;101578.72;;;12.16;60.77
46534;BME280;32260;52.008;4.752;2023-04-06T10:30:48;101570.72;;;12.19;60.79
46534;BME280;32260;52.008;4.752;2023-04-06T10:33:19;101571.69;;;12.13;61.34
46534;BME280;32260;52.008;4.752;2023-04-06T10:35:46;101572.75;;;12.00;61.69
46534;BME280;32260;52.008;4.752;2023-04-06T10:40:42;101564.94;;;11.89;61.87
46534;BME280;32260;52.008;4.752;2023-04-06T10:43:24;101563.94;;;11.94;61.75
46534;BME280;32260;52.008;4.752;2023-04-06T10:45:57;101564.84;;;11.93;62.04
46534;BME280;32260;52.008;4.752;2023-04-06T10:48:23;101564.16;;;11.79;62.85
46534;BME280;32260;52.008;4.752;2023-04-06T10:50:52;101556.13;;;11.85;63.67
46534;BME280;32260;52.008;4.752;2023-04-06T10:53:25;101559.56;;;11.92;63.36
46534;BME280;32260;52.008;4.752;2023-04-06T10:55:54;101555.31;;;11.78;63.18
46534;BME280;32260;52.008;4.752;2023-04-06T10:58:24;101551.81;;;11.75;63.15
46534;BME280;32260;52.008;4.752;2023-04-06T11:00:50;101544.75;;;11.74;62.99
46534;BME280;32260;52.008;4.752;2023-04-06T11:03:17;101537.88;;;11.60;63.69
46534;BME280;32260;52.008;4.752;2023-04-06T11:05:48;101539.66;;;11.58;64.04
46534;BME280;32260;52.008;4.752;2023-04-06T11:08:32;101539.56;;;11.64;64.42
46534;BME280;32260;52.008;4.752;2023-04-06T11:11:12;101541.44;;;11.56;64.57
46534;BME280;32260;52.008;4.752;2023-04-06T11:13:53;101537.75;;;11.68;64.88
46534;BME280;32260;52.008;4.752;2023-04-06T11:16:22;101534.25;;;11.64;65.52
46534;BME280;32260;52.008;4.752;2023-04-06T11:18:59;101526.19;;;11.72;65.15
46534;BME280;32260;52.008;4.752;2023-04-06T11:21:45;101530.66;;;11.69;64.47
46534;BME280;32260;52.008;4.752;2023-04-06T11:26:46;101527.28;;;11.57;65.01
46534;BME280;32260;52.008;4.752;2023-04-06T11:29:16;101524.66;;;11.56;65.76
46534;BME280;32260;52.008;4.752;2023-04-06T11:31:46;101517.53;;;11.56;65.96
46534;BME280;32260;52.008;4.752;2023-04-06T11:34:23;101515.91;;;11.47;65.90
46534;BME280;32260;52.008;4.752;2023-04-06T11:37:02;101514.22;;;11.42;65.70
46534;BME280;32260;52.008;4.752;2023-04-06T11:39:31;101515.06;;;11.44;65.39
46534;BME280;32260;52.008;4.752;2023-04-06T11:42:01;101525.72;;;11.41;66.56
46534;BME280;32260;52.008;4.752;2023-04-06T11:44:39;101518.72;;;11.33;65.78
46534;BME280;32260;52.008;4.752;2023-04-06T11:47:07;101516.13;;;11.30;66.84
46534;BME280;32260;52.008;4.752;2023-04-06T11:49:37;101508.00;;;11.43;67.10
46534;BME280;32260;52.008;4.752;2023-04-06T11:52:24;101507.09;;;11.44;67.16
46534;BME280;32260;52.008;4.752;2023-04-06T11:54:52;101503.47;;;11.53;67.41
46534;BME280;32260;52.008;4.752;2023-04-06T11:57:20;101500.88;;;11.48;68.02
46534;BME280;32260;52.008;4.752;2023-04-06T11:59:46;101503.34;;;11.60;67.26
46534;BME280;32260;52.008;4.752;2023-04-06T12:02:13;101498.97;;;11.56;66.86
46534;BME280;32260;52.008;4.752;2023-04-06T12:04:39;101500.81;;;11.53;66.99
46534;BME280;32260;52.008;4.752;2023-04-06T12:07:05;101494.66;;;11.49;66.87
46534;BME280;32260;52.008;4.752;2023-04-06T12:09:31;101501.72;;;11.48;67.06
46534;BME280;32260;52.008;4.752;2023-04-06T12:11:57;101495.59;;;11.45;67.15
46534;BME280;32260;52.008;4.752;2023-04-06T12:14:23;101489.38;;;11.46;67.16
46534;BME280;32260;52.008;4.752;2023-04-06T12:16:50;101505.31;;;11.46;67.24
46534;BME280;32260;52.008;4.752;2023-04-06T12:19:16;101493.72;;;11.53;66.61
46534;BME280;32260;52.008;4.752;2023-04-06T12:21:42;101488.34;;;11.56;67.23
46534;BME280;32260;52.008;4.752;2023-04-06T12:24:08;101485.69;;;11.56;67.48
46534;BME280;32260;52.008;4.752;2023-04-06T12:26:35;101491.97;;;11.52;67.51
46534;BME280;32260;52.008;4.752;2023-04-06T12:29:03;101485.75;;;11.53;67.05
46534;BME280;32260;52.008;4.752;2023-04-06T12:31:35;101489.25;;;11.57;67.66
46534;BME280;32260;52.008;4.752;2023-04-06T12:34:02;101483.09;;;11.53;67.21
46534;BME280;32260;52.008;4.752;2023-04-06T12:36:29;101486.53;;;11.61;67.03
46534;BME280;32260;52.008;4.752;2023-04-06T12:38:55;101476.94;;;11.53;67.19
46534;BME280;32260;52.008;4.752;2023-04-06T12:41:21;101473.34;;;11.54;67.41
46534;BME280;32260;52.008;4.752;2023-04-06T12:43:49;101486.72;;;11.49;67.83
46534;BME280;32260;52.008;4.752;2023-04-06T12:46:18;101477.16;;;11.36;67.87
46534;BME280;32260;52.008;4.752;2023-04-06T12:48:44;101480.66;;;11.39;67.86
46534;BME280;32260;52.008;4.752;2023-04-06T12:51:10;101475.44;;;11.30;67.86
46534;BME280;32260;52.008;4.752;2023-04-06T12:53:36;101474.53;;;11.32;67.84
46534;BME280;32260;52.008;4.752;2023-04-06T12:56:09;101468.38;;;11.30;67.85
46534;BME280;32260;52.008;4.752;2023-04-06T12:58:37;101467.44;;;11.35;68.21
46534;BME280;32260;52.008;4.752;2023-04-06T13:01:12;101462.09;;;11.38;68.49
46534;BME280;32260;52.008;4.752;2023-04-06T13:03:42;101462.09;;;11.38;68.38
46534;BME280;32260;52.008;4.752;2023-04-06T13:06:08;101451.38;;;11.45;68.66
46534;BME280;32260;52.008;4.752;2023-04-06T13:08:35;101455.88;;;11.39;68.75
46534;BME280;32260;52.008;4.752;2023-04-06T13:11:04;101451.28;;;11.52;68.38
46534;BME280;32260;52.008;4.752;2023-04-06T13:13:31;101455.78;;;11.46;69.45
46534;BME280;32260;52.008;4.752;2023-04-06T13:16:05;101457.47;;;11.52;68.98